createdAt,value
2018-02-01T00:01:41.821Z,-0.16
2018-02-01T00:04:09.407Z,-0.22
2018-02-01T00:06:36.958Z,-0.28
2018-02-01T00:09:04.800Z,-0.34
2018-02-01T00:11:32.391Z,-0.36
2018-02-01T00:14:00.143Z,-0.31
2018-02-01T00:16:27.747Z,-0.35
2018-02-01T00:18:55.324Z,-0.46
2018-02-01T00:21:22.902Z,-0.43
2018-02-01T00:23:50.503Z,-0.35
2018-02-01T00:26:18.066Z,-0.31
2018-02-01T00:28:45.636Z,-0.34
2018-02-01T00:31:13.358Z,-0.31
2018-02-01T00:33:41.017Z,-0.33
2018-02-01T00:36:08.689Z,-0.35
2018-02-01T00:38:36.326Z,-0.31
2018-02-01T00:41:03.908Z,-0.31
2018-02-01T00:43:31.705Z,-0.30
2018-02-01T00:45:59.322Z,-0.33
2018-02-01T00:48:26.901Z,-0.41
2018-02-01T00:50:54.650Z,-0.44
2018-02-01T00:53:22.279Z,-0.49
2018-02-01T00:55:49.841Z,-0.56
2018-02-01T00:58:17.411Z,-0.56
2018-02-01T01:00:45.028Z,-0.58
2018-02-01T01:03:12.774Z,-0.61
2018-02-01T01:05:40.343Z,-0.57
2018-02-01T01:08:08.064Z,-0.60
2018-02-01T01:10:35.659Z,-0.61
2018-02-01T01:13:03.407Z,-0.65
2018-02-01T01:15:30.991Z,-0.66
2018-02-01T01:17:58.548Z,-0.65
2018-02-01T01:20:26.128Z,-0.57
2018-02-01T01:22:53.720Z,-0.52
2018-02-01T01:25:21.491Z,-0.51
2018-02-01T01:27:49.174Z,-0.46
2018-02-01T01:30:16.792Z,-0.50
2018-02-01T01:32:44.359Z,-0.55
2018-02-01T01:35:12.164Z,-0.53
2018-02-01T01:37:39.772Z,-0.53
2018-02-01T01:40:07.339Z,-0.54
2018-02-01T01:42:34.915Z,-0.56
2018-02-01T01:45:02.598Z,-0.62
2018-02-01T01:47:30.164Z,-0.62
2018-02-01T01:49:57.735Z,-0.65
2018-02-01T01:52:25.337Z,-0.68
2018-02-01T01:54:52.889Z,-0.71
2018-02-01T01:57:20.454Z,-0.70
2018-02-01T01:59:48.059Z,-0.75
2018-02-01T02:02:15.623Z,-0.71
2018-02-01T02:04:43.307Z,-0.70
2018-02-01T02:07:10.907Z,-0.69
2018-02-01T02:09:38.467Z,-0.69
2018-02-01T02:12:06.083Z,-0.70
2018-02-01T02:14:33.682Z,-0.71
2018-02-01T02:17:01.236Z,-0.74
2018-02-01T02:19:28.814Z,-0.73
2018-02-01T02:21:56.531Z,-0.75
2018-02-01T02:24:24.125Z,-0.75
2018-02-01T02:26:51.833Z,-0.75
2018-02-01T02:29:19.450Z,-0.78
2018-02-01T02:31:47.972Z,-0.75
2018-02-01T02:34:15.542Z,-0.74
2018-02-01T02:36:43.307Z,-0.70
2018-02-01T02:39:10.868Z,-0.70
2018-02-01T02:41:38.471Z,-0.72
2018-02-01T02:44:06.093Z,-0.66
2018-02-01T02:46:33.671Z,-0.65
2018-02-01T02:49:01.245Z,-0.62
2018-02-01T02:51:29.080Z,-0.61
2018-02-01T02:53:56.642Z,-0.63
2018-02-01T02:56:24.217Z,-0.63
2018-02-01T02:58:51.821Z,-0.63
2018-02-01T03:01:19.403Z,-0.65
2018-02-01T03:03:46.968Z,-0.62
2018-02-01T03:06:14.656Z,-0.67
2018-02-01T03:08:42.320Z,-0.66
2018-02-01T03:11:09.967Z,-0.72
2018-02-01T03:13:37.569Z,-0.74
2018-02-01T03:16:05.134Z,-0.75
2018-02-01T03:18:32.686Z,-0.75
2018-02-01T03:21:00.283Z,-0.79
2018-02-01T03:23:27.886Z,-0.78
2018-02-01T03:25:55.440Z,-0.92
2018-02-01T03:28:23.039Z,-0.78
2018-02-01T03:30:50.642Z,-0.78
2018-02-01T03:33:18.228Z,-0.82
2018-02-01T03:35:45.825Z,-0.84
2018-02-01T03:38:13.432Z,-0.92
2018-02-01T03:40:41.111Z,-0.92
2018-02-01T03:43:08.760Z,-0.91
2018-02-01T03:45:36.332Z,-1.02
2018-02-01T03:48:03.919Z,-0.91
2018-02-01T03:50:31.513Z,-0.93
2018-02-01T03:52:59.087Z,-0.87
2018-02-01T03:55:26.685Z,-0.83
2018-02-01T03:57:54.300Z,-0.82
2018-02-01T04:00:21.983Z,-0.82
2018-02-01T04:02:49.634Z,-0.82
2018-02-01T04:05:17.229Z,-0.77
2018-02-01T04:07:44.985Z,-0.76
2018-02-01T04:10:12.686Z,-0.81
2018-02-01T04:12:40.310Z,-0.78
2018-02-01T04:15:07.904Z,-0.75
2018-02-01T04:17:35.472Z,-0.70
2018-02-01T04:20:03.086Z,-0.73
2018-02-01T04:22:30.730Z,-0.74
2018-02-01T04:24:58.580Z,-0.80
2018-02-01T04:27:26.261Z,-0.81
2018-02-01T04:29:53.819Z,-0.83
2018-02-01T04:32:21.386Z,-0.82
2018-02-01T04:34:48.995Z,-0.89
2018-02-01T04:37:16.701Z,-0.92
2018-02-01T04:39:44.266Z,-0.91
2018-02-01T04:42:11.871Z,-0.92
2018-02-01T04:44:39.472Z,-0.94
2018-02-01T04:47:07.050Z,-0.92
2018-02-01T04:49:34.661Z,-0.98
2018-02-01T04:52:02.258Z,-0.99
2018-02-01T04:54:29.866Z,-1.00
2018-02-01T04:56:57.482Z,-0.91
2018-02-01T04:59:25.282Z,-0.94
2018-02-01T05:01:52.849Z,-0.93
2018-02-01T05:04:20.451Z,-0.94
2018-02-01T05:06:48.043Z,-0.98
2018-02-01T05:09:15.707Z,-0.96
2018-02-01T05:11:43.334Z,-0.93
2018-02-01T05:14:10.921Z,-0.94
2018-02-01T05:16:38.508Z,-0.93
2018-02-01T05:19:06.129Z,-0.96
2018-02-01T05:21:33.694Z,-1.03
2018-02-01T05:24:01.264Z,-1.00
2018-02-01T05:26:28.871Z,-0.97
2018-02-01T05:28:56.448Z,-0.99
2018-02-01T05:31:24.018Z,-1.00
2018-02-01T05:33:51.637Z,-0.98
2018-02-01T05:36:19.395Z,-1.01
2018-02-01T05:38:46.969Z,-1.03
2018-02-01T05:41:14.626Z,-0.98
2018-02-01T05:43:42.164Z,-0.93
2018-02-01T05:46:09.704Z,-0.87
2018-02-01T05:48:37.312Z,-0.86
2018-02-01T05:51:04.907Z,-0.90
2018-02-01T05:53:32.607Z,-0.70
2018-02-01T05:56:00.220Z,-0.66
2018-02-01T05:58:27.933Z,-0.60
2018-02-01T06:00:55.600Z,-0.57
2018-02-01T06:03:23.269Z,-0.53
2018-02-01T06:05:50.886Z,-0.35
2018-02-01T06:08:18.466Z,-0.21
2018-02-01T06:10:46.072Z,-0.06
2018-02-01T06:13:13.700Z,0.49
2018-02-01T06:15:41.266Z,1.70
2018-02-01T06:18:08.865Z,3.25
2018-02-01T06:20:36.431Z,4.61
2018-02-01T06:23:04.168Z,6.00
2018-02-01T06:25:31.766Z,6.65
2018-02-01T06:27:59.554Z,7.46
2018-02-01T06:30:27.336Z,8.10
2018-02-01T06:32:54.926Z,8.46
2018-02-01T06:35:22.490Z,8.52
2018-02-01T06:37:50.425Z,8.84
2018-02-01T06:40:18.039Z,8.85
2018-02-01T06:42:45.621Z,9.38
2018-02-01T06:45:13.183Z,9.75
2018-02-01T06:47:40.800Z,10.24
2018-02-01T06:50:08.367Z,10.12
2018-02-01T06:52:35.930Z,10.20
2018-02-01T06:55:03.558Z,10.76
2018-02-01T06:57:31.123Z,11.01
2018-02-01T06:59:58.872Z,11.13
2018-02-01T07:02:26.548Z,11.66
2018-02-01T07:04:54.120Z,12.22
2018-02-01T07:07:21.687Z,11.80
2018-02-01T07:09:49.526Z,12.13
2018-02-01T07:12:17.109Z,12.38
2018-02-01T07:14:44.680Z,12.43
2018-02-01T07:17:12.283Z,13.10
2018-02-01T07:19:39.848Z,13.34
2018-02-01T07:22:07.684Z,13.70
2018-02-01T07:24:35.523Z,13.76
2018-02-01T07:27:03.103Z,14.40
2018-02-01T07:29:30.821Z,14.67
2018-02-01T07:31:58.450Z,14.44
2018-02-01T07:34:26.023Z,15.10
2018-02-01T07:36:53.597Z,14.78
2018-02-01T07:39:21.191Z,15.77
2018-02-01T07:41:48.776Z,15.85
2018-02-01T07:44:16.398Z,15.69
2018-02-01T07:46:44.056Z,15.51
2018-02-01T07:49:11.790Z,15.08
2018-02-01T07:51:39.575Z,15.23
2018-02-01T07:54:07.249Z,15.66
2018-02-01T07:56:34.825Z,15.61
2018-02-01T07:59:02.424Z,15.60
2018-02-01T08:01:30.053Z,15.84
2018-02-01T08:03:57.707Z,16.11
2018-02-01T08:06:25.307Z,16.23
2018-02-01T08:08:53.025Z,16.45
2018-02-01T08:13:53.461Z,17.24
2018-02-01T08:16:21.046Z,17.82
2018-02-01T08:18:48.618Z,17.51
2018-02-01T08:21:16.222Z,17.58
2018-02-01T08:23:43.794Z,17.02
2018-02-01T08:26:11.371Z,17.47
2018-02-01T08:28:38.983Z,17.57
2018-02-01T08:31:06.674Z,17.57
2018-02-01T08:33:34.251Z,17.84
2018-02-01T08:36:01.866Z,18.74
2018-02-01T08:38:29.475Z,18.03
2018-02-01T08:40:57.057Z,17.84
2018-02-01T08:43:24.699Z,18.49
2018-02-01T08:45:52.283Z,18.92
2018-02-01T08:48:19.865Z,19.17
2018-02-01T08:50:47.477Z,19.81
2018-02-01T08:53:15.027Z,19.94
2018-02-01T08:55:42.694Z,19.59
2018-02-01T08:58:10.886Z,20.47
2018-02-01T09:00:38.482Z,20.80
2018-02-01T09:03:06.052Z,21.30
2018-02-01T09:05:33.656Z,21.69
2018-02-01T09:08:01.400Z,21.25
2018-02-01T09:10:29.064Z,21.30
2018-02-01T09:12:56.724Z,21.15
2018-02-01T09:15:24.287Z,21.32
2018-02-01T09:17:51.873Z,21.26
2018-02-01T09:20:19.523Z,21.33
2018-02-01T09:22:47.184Z,22.07
2018-02-01T09:25:14.784Z,23.04
2018-02-01T09:27:42.470Z,23.33
2018-02-01T09:30:10.146Z,24.14
2018-02-01T09:32:37.711Z,23.85
2018-02-01T09:35:05.489Z,24.07
2018-02-01T09:37:33.056Z,24.35
2018-02-01T09:40:00.624Z,23.81
2018-02-01T09:42:28.238Z,24.14
2018-02-01T09:44:55.927Z,24.48
2018-02-01T09:47:23.488Z,23.91
2018-02-01T09:49:51.078Z,23.14
2018-02-01T09:52:18.926Z,23.56
2018-02-01T09:54:46.585Z,23.39
2018-02-01T09:57:14.434Z,23.39
2018-02-01T09:59:42.000Z,22.88
2018-02-01T10:02:09.772Z,22.97
2018-02-01T10:04:37.376Z,23.34
2018-02-01T10:07:05.093Z,24.01
2018-02-01T10:09:32.656Z,24.16
2018-02-01T10:12:00.420Z,24.65
2018-02-01T10:14:27.997Z,24.52
2018-02-01T10:16:55.562Z,24.74
2018-02-01T10:19:23.211Z,24.67
2018-02-01T10:21:50.858Z,25.54
2018-02-01T10:24:18.506Z,25.24
2018-02-01T10:26:46.111Z,25.57
2018-02-01T10:29:13.656Z,25.57
2018-02-01T10:31:41.207Z,25.12
2018-02-01T10:34:08.976Z,25.54
2018-02-01T10:36:36.514Z,25.68
2018-02-01T10:39:04.138Z,25.08
2018-02-01T10:41:31.720Z,25.29
2018-02-01T10:43:59.273Z,25.12
2018-02-01T10:46:26.838Z,23.96
2018-02-01T10:48:54.427Z,23.78
2018-02-01T10:51:21.962Z,23.50
2018-02-01T10:53:49.680Z,24.20
2018-02-01T10:56:17.331Z,24.16
2018-02-01T10:58:44.886Z,24.36
2018-02-01T11:01:12.484Z,24.21
2018-02-01T11:03:40.058Z,24.12
2018-02-01T11:06:07.608Z,23.22
2018-02-01T11:08:35.151Z,23.65
2018-02-01T11:11:02.728Z,25.47
2018-02-01T11:13:30.346Z,25.51
2018-02-01T11:15:57.922Z,24.86
2018-02-01T11:18:25.523Z,24.34
2018-02-01T11:20:53.095Z,22.92
2018-02-01T11:23:20.645Z,24.06
2018-02-01T11:25:48.266Z,24.54
2018-02-01T11:28:15.836Z,25.41
2018-02-01T11:30:43.572Z,25.86
2018-02-01T11:33:11.159Z,25.44
2018-02-01T11:35:38.702Z,25.76
2018-02-01T11:38:06.284Z,25.85
2018-02-01T11:40:33.889Z,25.66
2018-02-01T11:43:02.376Z,24.39
2018-02-01T11:45:29.921Z,23.02
2018-02-01T11:47:57.514Z,23.15
2018-02-01T11:50:25.063Z,22.85
2018-02-01T11:52:52.617Z,22.74
2018-02-01T11:55:20.201Z,22.59
2018-02-01T11:57:47.758Z,24.34
2018-02-01T12:00:15.299Z,23.54
2018-02-01T12:02:42.874Z,23.95
2018-02-01T12:05:10.433Z,22.72
2018-02-01T12:07:37.988Z,23.76
2018-02-01T12:10:05.555Z,24.27
2018-02-01T12:12:33.110Z,23.40
2018-02-01T12:15:00.695Z,23.53
2018-02-01T12:17:28.289Z,24.07
2018-02-01T12:19:55.856Z,24.05
2018-02-01T12:22:23.423Z,24.39
2018-02-01T12:24:51.033Z,23.85
2018-02-01T12:27:18.761Z,23.72
2018-02-01T12:29:46.368Z,23.55
2018-02-01T12:32:13.975Z,24.07
2018-02-01T12:34:41.542Z,25.53
2018-02-01T12:37:09.109Z,24.91
2018-02-01T12:39:36.691Z,24.24
2018-02-01T12:42:04.261Z,24.92
2018-02-01T12:44:32.007Z,24.55
2018-02-01T12:46:59.603Z,25.01
2018-02-01T12:49:27.156Z,25.99
2018-02-01T12:51:54.711Z,24.95
2018-02-01T12:54:22.283Z,25.18
2018-02-01T12:56:49.907Z,25.59
2018-02-01T12:59:17.480Z,26.12
2018-02-01T13:01:45.063Z,26.11
2018-02-01T13:04:12.599Z,25.40
2018-02-01T13:06:40.155Z,24.85
2018-02-01T13:09:07.765Z,25.16
2018-02-01T13:11:35.308Z,25.55
2018-02-01T13:14:02.855Z,26.07
2018-02-01T13:16:30.430Z,25.20
2018-02-01T13:18:57.989Z,25.75
2018-02-01T13:21:25.564Z,26.06
2018-02-01T13:23:53.176Z,25.87
2018-02-01T13:26:20.870Z,25.51
2018-02-01T13:28:48.440Z,25.83
2018-02-01T13:31:16.145Z,25.31
2018-02-01T13:33:43.720Z,25.46
2018-02-01T13:36:11.297Z,25.18
2018-02-01T13:38:38.924Z,25.46
2018-02-01T13:41:06.593Z,24.74
2018-02-01T13:43:34.172Z,24.36
2018-02-01T13:46:01.929Z,24.60
2018-02-01T13:48:29.787Z,24.64
2018-02-01T13:50:57.365Z,24.55
2018-02-01T13:53:24.972Z,23.51
2018-02-01T13:55:52.551Z,23.73
2018-02-01T13:58:20.143Z,22.29
2018-02-01T14:00:47.750Z,22.39
2018-02-01T14:03:15.342Z,21.89
2018-02-01T14:05:43.009Z,21.26
2018-02-01T14:08:10.669Z,20.87
2018-02-01T14:10:38.244Z,20.45
2018-02-01T14:13:05.811Z,19.40
2018-02-01T14:15:33.555Z,18.64
2018-02-01T14:18:01.513Z,18.18
2018-02-01T14:20:29.097Z,17.76
2018-02-01T14:22:56.711Z,17.26
2018-02-01T14:25:24.320Z,16.69
2018-02-01T14:27:51.894Z,16.57
2018-02-01T14:30:19.511Z,16.30
2018-02-01T14:32:47.287Z,16.24
2018-02-01T14:35:15.737Z,16.01
2018-02-01T14:37:43.344Z,15.72
2018-02-01T14:40:10.928Z,15.56
2018-02-01T14:42:38.505Z,15.34
2018-02-01T14:45:06.107Z,14.87
2018-02-01T14:47:33.893Z,14.73
2018-02-01T14:50:01.479Z,14.59
2018-02-01T14:52:29.080Z,14.38
2018-02-01T14:54:56.668Z,14.25
2018-02-01T14:57:24.333Z,14.08
2018-02-01T14:59:51.957Z,13.91
2018-02-01T15:02:19.660Z,13.81
2018-02-01T15:04:47.312Z,13.76
2018-02-01T15:07:14.985Z,13.74
2018-02-01T15:09:42.551Z,13.64
2018-02-01T15:12:10.130Z,13.46
2018-02-01T15:14:37.838Z,13.29
2018-02-01T15:17:05.413Z,13.13
2018-02-01T15:19:33.087Z,13.06
2018-02-01T15:22:00.925Z,12.87
2018-02-01T15:24:28.618Z,12.69
2018-02-01T15:26:56.223Z,12.39
2018-02-01T15:29:23.846Z,12.15
2018-02-01T15:31:51.597Z,12.02
2018-02-01T15:34:19.254Z,11.75
2018-02-01T15:36:46.881Z,11.51
2018-02-01T15:39:14.699Z,11.37
2018-02-01T15:41:42.464Z,11.22
2018-02-01T15:44:10.064Z,11.08
2018-02-01T15:46:37.831Z,10.77
2018-02-01T15:49:05.513Z,10.62
2018-02-01T15:51:33.155Z,10.48
2018-02-01T15:54:00.774Z,10.31
2018-02-01T15:56:28.427Z,10.18
2018-02-01T15:58:56.059Z,10.10
2018-02-01T16:01:23.727Z,10.05
2018-02-01T16:03:51.384Z,9.92
2018-02-01T16:06:19.022Z,9.90
2018-02-01T16:08:46.645Z,9.78
2018-02-01T16:11:14.257Z,9.78
2018-02-01T16:13:43.054Z,9.75
2018-02-01T16:16:11.130Z,9.66
2018-02-01T16:18:38.786Z,9.59
2018-02-01T16:21:06.396Z,9.62
2018-02-01T16:23:33.978Z,9.57
2018-02-01T16:26:01.743Z,9.51
2018-02-01T16:28:29.470Z,9.48
2018-02-01T16:30:57.550Z,9.38
2018-02-01T16:33:25.213Z,9.42
2018-02-01T16:35:52.812Z,9.28
2018-02-01T16:38:20.440Z,9.22
2018-02-01T16:40:48.012Z,9.11
2018-02-01T16:43:15.747Z,9.16
2018-02-01T16:45:43.385Z,9.10
2018-02-01T16:48:10.949Z,9.03
2018-02-01T16:50:38.511Z,8.88
2018-02-01T16:53:06.205Z,8.74
2018-02-01T16:55:33.768Z,8.61
2018-02-01T16:58:01.328Z,8.48
2018-02-01T17:00:29.055Z,8.29
2018-02-01T17:02:56.831Z,8.17
2018-02-01T17:05:24.495Z,8.09
2018-02-01T17:07:52.094Z,7.97
2018-02-01T17:10:19.654Z,7.98
2018-02-01T17:12:47.219Z,8.14
2018-02-01T17:15:14.818Z,7.97
2018-02-01T17:17:42.391Z,7.75
2018-02-01T17:20:09.979Z,7.61
2018-02-01T17:22:37.944Z,7.41
2018-02-01T17:25:05.509Z,7.40
2018-02-01T17:27:33.069Z,7.54
2018-02-01T17:30:00.671Z,7.51
2018-02-01T17:32:28.237Z,7.41
2018-02-01T17:34:55.832Z,7.28
2018-02-01T17:37:23.424Z,7.07
2018-02-01T17:39:51.170Z,6.91
2018-02-01T17:42:18.794Z,6.94
2018-02-01T17:44:46.413Z,7.01
2018-02-01T17:47:13.968Z,6.91
2018-02-01T17:49:41.523Z,6.80
2018-02-01T17:52:09.139Z,6.63
2018-02-01T17:54:36.710Z,6.46
2018-02-01T17:57:04.273Z,6.54
2018-02-01T17:59:31.859Z,6.44
2018-02-01T18:01:59.691Z,6.20
2018-02-01T18:04:27.238Z,5.98
2018-02-01T18:06:54.949Z,5.92
2018-02-01T18:09:22.492Z,6.11
2018-02-01T18:11:50.061Z,5.86
2018-02-01T18:14:17.777Z,5.71
2018-02-01T18:16:45.354Z,5.64
2018-02-01T18:19:12.949Z,5.55
2018-02-01T18:21:40.708Z,5.81
2018-02-01T18:24:08.254Z,5.95
2018-02-01T18:26:35.802Z,5.68
2018-02-01T18:29:06.908Z,5.62
2018-02-01T18:31:35.038Z,5.48
2018-02-01T18:34:02.630Z,5.30
2018-02-01T18:36:30.227Z,5.39
2018-02-01T18:38:57.997Z,5.32
2018-02-01T18:41:25.544Z,5.27
2018-02-01T18:43:53.159Z,5.32
2018-02-01T18:46:20.699Z,5.43
2018-02-01T18:48:48.360Z,5.23
2018-02-01T18:51:15.967Z,5.16
2018-02-01T18:53:43.691Z,4.96
2018-02-01T18:56:11.247Z,4.74
2018-02-01T18:58:38.971Z,4.63
2018-02-01T19:01:06.526Z,4.85
2018-02-01T19:03:34.101Z,4.81
2018-02-01T19:06:01.698Z,4.67
2018-02-01T19:08:29.265Z,4.61
2018-02-01T19:10:56.827Z,4.74
2018-02-01T19:13:24.595Z,4.99
2018-02-01T19:15:52.160Z,5.04
2018-02-01T19:18:19.898Z,4.95
2018-02-01T19:20:47.480Z,4.83
2018-02-01T19:23:15.226Z,4.74
2018-02-01T19:25:43.110Z,4.43
2018-02-01T19:28:10.717Z,4.43
2018-02-01T19:30:38.285Z,4.27
2018-02-01T19:33:05.852Z,4.03
2018-02-01T19:35:33.528Z,4.03
2018-02-01T19:38:01.103Z,4.15
2018-02-01T19:40:28.679Z,4.42
2018-02-01T19:42:56.287Z,4.19
2018-02-01T19:45:23.831Z,3.98
2018-02-01T19:47:51.430Z,3.86
2018-02-01T19:50:19.033Z,3.63
2018-02-01T19:52:46.600Z,3.51
2018-02-01T19:55:14.172Z,3.30
2018-02-01T19:57:41.759Z,3.38
2018-02-01T20:00:09.542Z,3.52
2018-02-01T20:02:37.114Z,3.45
2018-02-01T20:05:04.688Z,3.26
2018-02-01T20:07:32.237Z,3.21
2018-02-01T20:09:59.799Z,3.17
2018-02-01T20:12:27.468Z,3.01
2018-02-01T20:14:55.089Z,2.87
2018-02-01T20:17:22.678Z,2.74
2018-02-01T20:19:50.437Z,2.69
2018-02-01T20:22:18.093Z,2.57
2018-02-01T20:24:45.702Z,2.58
2018-02-01T20:27:13.280Z,2.57
2018-02-01T20:29:40.889Z,2.49
2018-02-01T20:32:08.458Z,2.43
2018-02-01T20:34:36.105Z,2.39
2018-02-01T20:37:03.662Z,2.36
2018-02-01T20:39:31.257Z,2.33
2018-02-01T20:41:59.685Z,2.37
2018-02-01T20:44:27.289Z,2.40
2018-02-01T20:46:54.850Z,2.40
2018-02-01T20:49:22.451Z,2.27
2018-02-01T20:51:50.009Z,2.20
2018-02-01T20:54:17.572Z,2.12
2018-02-01T20:56:45.155Z,2.16
2018-02-01T20:59:12.791Z,2.16
2018-02-01T21:01:40.485Z,2.15
2018-02-01T21:04:08.087Z,2.14
2018-02-01T21:06:35.644Z,2.11
2018-02-01T21:09:03.486Z,2.09
2018-02-01T21:11:31.073Z,2.04
2018-02-01T21:13:58.618Z,2.00
2018-02-01T21:16:26.160Z,1.95
2018-02-01T21:18:53.872Z,1.93
2018-02-01T21:21:21.444Z,1.80
2018-02-01T21:23:48.994Z,1.78
2018-02-01T21:26:16.707Z,1.75
2018-02-01T21:28:44.297Z,1.73
2018-02-01T21:31:11.934Z,1.73
2018-02-01T21:33:39.677Z,1.72
2018-02-01T21:36:07.232Z,1.76
2018-02-01T21:38:34.784Z,1.77
2018-02-01T21:41:02.364Z,1.76
2018-02-01T21:43:29.928Z,1.69
2018-02-01T21:45:57.480Z,1.62
2018-02-01T21:48:25.085Z,1.67
2018-02-01T21:50:52.650Z,1.65
2018-02-01T21:53:20.212Z,1.63
2018-02-01T21:55:47.834Z,1.48
2018-02-01T21:58:15.482Z,1.64
2018-02-01T22:00:43.070Z,1.60
2018-02-01T22:03:10.658Z,1.54
2018-02-01T22:05:38.229Z,1.49
2018-02-01T22:08:05.773Z,1.44
2018-02-01T22:10:33.348Z,1.44
2018-02-01T22:13:01.065Z,1.40
2018-02-01T22:15:28.621Z,1.44
2018-02-01T22:17:56.388Z,1.37
2018-02-01T22:20:23.949Z,1.42
2018-02-01T22:22:51.504Z,1.44
2018-02-01T22:25:19.114Z,1.43
2018-02-01T22:27:46.812Z,1.40
2018-02-01T22:30:14.369Z,1.35
2018-02-01T22:32:41.959Z,1.35
2018-02-01T22:35:09.511Z,1.37
2018-02-01T22:37:37.066Z,1.30
2018-02-01T22:40:04.719Z,1.25
2018-02-01T22:42:32.272Z,1.30
2018-02-01T22:44:59.889Z,1.27
2018-02-01T22:47:27.497Z,1.25
2018-02-01T22:49:55.055Z,1.26
2018-02-01T22:52:22.615Z,1.21
2018-02-01T22:54:50.294Z,1.28
2018-02-01T22:57:17.958Z,1.32
2018-02-01T22:59:45.604Z,1.32
2018-02-01T23:02:13.258Z,1.36
2018-02-01T23:04:40.801Z,1.43
2018-02-01T23:07:08.356Z,1.43
2018-02-01T23:09:35.981Z,1.41
2018-02-01T23:12:03.555Z,1.48
2018-02-01T23:14:31.115Z,1.45
2018-02-01T23:16:58.701Z,1.45
2018-02-01T23:19:26.261Z,1.47
2018-02-01T23:21:53.816Z,1.50
2018-02-01T23:24:21.425Z,1.55
2018-02-01T23:26:48.980Z,1.55
2018-02-01T23:29:16.545Z,1.58
2018-02-01T23:31:44.203Z,1.54
2018-02-01T23:34:11.751Z,1.48
2018-02-01T23:36:39.303Z,1.53
2018-02-01T23:39:06.965Z,1.57
2018-02-01T23:41:34.529Z,1.59
2018-02-01T23:44:02.099Z,1.58
2018-02-01T23:46:29.672Z,1.63
2018-02-01T23:48:57.231Z,1.64
2018-02-01T23:51:24.813Z,1.64
2018-02-01T23:53:52.425Z,1.68
2018-02-01T23:56:19.967Z,1.65
2018-02-01T23:58:47.658Z,1.67
